createdAt,value
2022-11-04T00:01:41.616Z,34.9
2022-11-04T00:03:59.120Z,34.8
2022-11-04T00:06:16.911Z,31.2
2022-11-04T00:08:34.498Z,31.6
2022-11-04T00:10:52.881Z,31.4
2022-11-04T00:13:10.771Z,31.7
2022-11-04T00:15:27.714Z,31.9
2022-11-04T00:17:45.394Z,30.8
2022-11-04T00:20:03.119Z,31.3
2022-11-04T00:22:20.617Z,34.8
2022-11-04T00:24:38.327Z,31.1
2022-11-04T00:26:56.121Z,32
2022-11-04T00:29:13.843Z,31.2
2022-11-04T00:31:31.657Z,31.4
2022-11-04T00:33:49.036Z,34.6
2022-11-04T00:36:06.829Z,30.9
2022-11-04T00:38:24.594Z,31.1
2022-11-04T00:40:42.526Z,31.4
2022-11-04T00:43:00.532Z,31.8
2022-11-04T00:45:17.875Z,31.8
2022-11-04T00:47:35.544Z,30.9
2022-11-04T00:49:53.281Z,31
2022-11-04T00:52:10.875Z,31.3
2022-11-04T00:54:28.484Z,34.6
2022-11-04T00:56:46.146Z,30.1
2022-11-04T00:59:03.837Z,30.9
2022-11-04T01:01:21.774Z,31
2022-11-04T01:03:39.349Z,31
2022-11-04T01:05:57.096Z,31
2022-11-04T01:08:14.867Z,31.3
2022-11-04T01:10:32.629Z,31
2022-11-04T01:12:50.712Z,30.9
2022-11-04T01:15:07.951Z,31.7
2022-11-04T01:17:25.805Z,30.4
2022-11-04T01:19:43.279Z,30.8
2022-11-04T01:22:00.886Z,34.8
2022-11-04T01:24:18.633Z,30.5
2022-11-04T01:26:36.646Z,30.9
2022-11-04T01:28:54.105Z,31.1
2022-11-04T01:31:11.867Z,31.3
2022-11-04T01:33:29.670Z,30.9
2022-11-04T01:35:47.278Z,30.9
2022-11-04T01:38:05.251Z,31.4
2022-11-04T01:40:22.643Z,31.3
2022-11-04T01:42:40.216Z,34.9
2022-11-04T01:44:57.798Z,30.6
2022-11-04T01:47:15.418Z,30.9
2022-11-04T01:49:32.977Z,30.3
2022-11-04T01:51:50.666Z,30.5
2022-11-04T01:54:08.229Z,34.8
2022-11-04T01:56:25.883Z,30.1
2022-11-04T02:01:01.099Z,30.9
2022-11-04T02:03:18.820Z,30.2
2022-11-04T02:05:36.556Z,31
2022-11-04T02:07:54.161Z,31.4
2022-11-04T02:12:29.585Z,30.6
2022-11-04T02:14:47.108Z,30.9
2022-11-04T02:17:04.723Z,30.4
2022-11-04T02:19:22.298Z,34.9
2022-11-04T02:21:39.890Z,29.9
2022-11-04T02:23:57.464Z,34.8
2022-11-04T02:26:14.967Z,30.6
2022-11-04T02:28:32.549Z,30.5
2022-11-04T02:30:50.066Z,30.2
2022-11-04T02:33:07.943Z,29.9
2022-11-04T02:35:25.465Z,30.6
2022-11-04T02:37:43.262Z,30.9
2022-11-04T02:40:01.083Z,34.8
2022-11-04T02:42:18.298Z,30.3
2022-11-04T02:44:35.784Z,30.1
2022-11-04T02:46:53.385Z,30.1
2022-11-04T02:49:11.159Z,30.5
2022-11-04T02:51:28.825Z,30.9
2022-11-04T02:53:46.407Z,30.4
2022-11-04T02:56:04.108Z,31.4
2022-11-04T02:58:22.019Z,31.3
2022-11-04T03:02:56.947Z,35.1
2022-11-04T03:05:14.493Z,30.6
2022-11-04T03:07:32.016Z,29.6
2022-11-04T03:09:49.552Z,29.4
2022-11-04T03:12:07.141Z,30.3
2022-11-04T03:14:24.751Z,30.4
2022-11-04T03:16:42.307Z,30.3
2022-11-04T03:18:59.859Z,30.9
2022-11-04T03:21:17.295Z,34.8
2022-11-04T03:23:34.913Z,30.3
2022-11-04T03:25:52.499Z,29.9
2022-11-04T03:28:10.274Z,30.5
2022-11-04T03:30:27.567Z,30.5
2022-11-04T03:32:45.109Z,29.8
2022-11-04T03:35:02.562Z,30
2022-11-04T03:37:20.413Z,29.9
2022-11-04T03:39:37.680Z,30.1
2022-11-04T03:41:55.140Z,30.2
2022-11-04T03:44:12.971Z,30.1
2022-11-04T03:46:30.313Z,34.5
2022-11-04T03:48:48.036Z,35.1
2022-11-04T03:51:05.615Z,34.6
2022-11-04T03:53:23.318Z,30.5
2022-11-04T03:55:40.838Z,35.1
2022-11-04T03:57:58.455Z,30.3
2022-11-04T04:00:15.936Z,29.8
2022-11-04T04:02:33.786Z,29.8
2022-11-04T04:04:51.538Z,29.4
2022-11-04T04:07:08.692Z,34.3
2022-11-04T04:09:26.217Z,30.3
2022-11-04T04:11:43.835Z,29.6
2022-11-04T04:14:01.282Z,29.4
2022-11-04T04:16:21.011Z,29.5
2022-11-04T04:18:36.355Z,30.8
2022-11-04T04:20:53.825Z,35
2022-11-04T04:23:11.432Z,30.2
2022-11-04T04:25:28.941Z,29.9
2022-11-04T04:27:46.530Z,29.7
2022-11-04T04:30:04.422Z,35.1
2022-11-04T04:32:21.947Z,30.1
2022-11-04T04:34:39.459Z,29.8
2022-11-04T04:36:57.162Z,34.8
2022-11-04T04:39:14.829Z,30.9
2022-11-04T04:41:32.449Z,29.6
2022-11-04T04:43:50.136Z,29.3
2022-11-04T04:46:07.729Z,29.6
2022-11-04T04:48:25.421Z,29.6
2022-11-04T04:50:43.020Z,29.5
2022-11-04T04:53:00.703Z,29.9
2022-11-04T04:55:18.291Z,30.1
2022-11-04T04:57:36.087Z,30.3
2022-11-04T04:59:53.757Z,30.1
2022-11-04T05:02:11.438Z,34.8
2022-11-04T05:04:29.172Z,34.9
2022-11-04T05:06:46.897Z,35.3
2022-11-04T05:09:04.665Z,30.9
2022-11-04T05:11:24.532Z,30.1
2022-11-04T05:13:40.196Z,29.8
2022-11-04T05:15:57.904Z,30.5
2022-11-04T05:18:15.550Z,34.4
2022-11-04T05:20:33.072Z,30.1
2022-11-04T05:22:50.565Z,30
2022-11-04T05:25:08.356Z,29.8
2022-11-04T05:27:25.986Z,34.7
2022-11-04T05:34:19.256Z,30.8
2022-11-04T05:36:36.810Z,29.9
2022-11-04T05:38:54.647Z,35
2022-11-04T05:41:12.348Z,30.5
2022-11-04T05:43:30.131Z,30.2
2022-11-04T05:45:47.636Z,34.9
2022-11-04T05:48:05.319Z,30.8
2022-11-04T05:50:23.193Z,29.4
2022-11-04T05:52:40.857Z,29.8
2022-11-04T05:54:58.713Z,30.6
2022-11-04T05:59:34.136Z,30.5
2022-11-04T06:01:52.143Z,35.1
2022-11-04T06:06:27.275Z,31.2
2022-11-04T06:08:45.361Z,30.3
2022-11-04T06:11:02.665Z,35.1
2022-11-04T06:13:20.301Z,30.9
2022-11-04T06:15:38.289Z,30.9
2022-11-04T06:17:55.958Z,30.9
2022-11-04T06:20:13.879Z,30.9
2022-11-04T06:22:31.458Z,35.1
2022-11-04T06:24:49.308Z,30.4
2022-11-04T06:27:06.932Z,31.3
2022-11-04T06:29:25.527Z,31.4
2022-11-04T06:31:43.220Z,30.9
2022-11-04T06:34:00.978Z,31.2
2022-11-04T06:36:18.822Z,31.1
2022-11-04T06:38:36.409Z,34.8
2022-11-04T06:40:54.336Z,35
2022-11-04T06:43:12.101Z,30.9
2022-11-04T06:45:30.046Z,31.1
2022-11-04T06:47:47.974Z,32.1
2022-11-04T06:50:05.674Z,32.2
2022-11-04T06:52:23.290Z,31.6
2022-11-04T06:54:40.822Z,34.8
2022-11-04T06:56:58.825Z,31
2022-11-04T06:59:16.474Z,31.9
2022-11-04T07:01:34.420Z,35.2
2022-11-04T07:03:52.048Z,31.9
2022-11-04T07:06:09.940Z,32
2022-11-04T07:08:27.443Z,34.7
2022-11-04T07:10:45.405Z,32
2022-11-04T07:13:02.928Z,35.3
2022-11-04T07:15:24.706Z,34.9
2022-11-04T07:17:38.595Z,32.4
2022-11-04T07:19:56.353Z,32.3
2022-11-04T07:24:31.771Z,32
2022-11-04T07:29:07.183Z,32.1
2022-11-04T07:31:25.100Z,32
2022-11-04T07:33:42.718Z,32.6
2022-11-04T07:36:00.204Z,34.4
2022-11-04T07:38:17.797Z,31.9
2022-11-04T07:40:35.348Z,32.1
2022-11-04T07:42:53.091Z,34.7
2022-11-04T07:45:10.782Z,31.9
2022-11-04T07:47:28.590Z,32.6
2022-11-04T07:49:46.148Z,32.1
2022-11-04T07:52:04.029Z,31.7
2022-11-04T07:54:21.400Z,32.2
2022-11-04T07:56:39.204Z,32.6
2022-11-04T07:58:56.779Z,32.6
2022-11-04T08:01:14.623Z,32.1
2022-11-04T08:03:32.021Z,34.4
2022-11-04T08:05:49.365Z,34.8
2022-11-04T08:08:06.984Z,35.3
2022-11-04T08:10:24.607Z,35.1
2022-11-04T08:12:42.333Z,32
2022-11-04T08:15:00.100Z,31.6
2022-11-04T08:19:34.665Z,31
2022-11-04T08:21:51.921Z,30.5
2022-11-04T08:24:09.102Z,31.2
2022-11-04T08:26:26.280Z,30.7
2022-11-04T08:28:43.939Z,30.5
2022-11-04T08:31:01.057Z,30.6
2022-11-04T08:33:18.582Z,30.8
2022-11-04T08:35:40.830Z,30.7
2022-11-04T08:37:53.284Z,30.8
2022-11-04T08:40:10.411Z,30.7
2022-11-04T08:42:28.516Z,30.5
2022-11-04T08:44:45.698Z,30.6
2022-11-04T08:47:03.177Z,31.4
2022-11-04T08:49:21.444Z,34.7
2022-11-04T08:51:37.791Z,34.5
2022-11-04T08:53:56.085Z,34.2
2022-11-04T08:56:12.725Z,34.9
2022-11-04T08:58:30.327Z,35.2
2022-11-04T09:00:47.863Z,35
2022-11-04T09:03:05.470Z,35.1
2022-11-04T09:05:23.184Z,35.4
2022-11-04T09:07:41.479Z,35.4
2022-11-04T09:09:58.228Z,35.5
2022-11-04T09:12:15.855Z,35.7
2022-11-04T09:14:33.585Z,35.3
2022-11-04T09:16:50.987Z,35.3
2022-11-04T09:19:08.896Z,35.8
2022-11-04T09:21:26.415Z,35.4
2022-11-04T09:23:44.245Z,35.6
2022-11-04T09:26:01.658Z,35.7
2022-11-04T09:28:19.477Z,35.5
2022-11-04T09:30:36.986Z,35.4
2022-11-04T09:35:12.557Z,35.9
2022-11-04T09:39:52.786Z,35.7
2022-11-04T09:42:05.404Z,35.9
2022-11-04T09:44:23.186Z,35.6
2022-11-04T09:46:57.469Z,35.9
2022-11-04T09:49:14.983Z,35.8
2022-11-04T09:51:56.932Z,36
2022-11-04T09:54:01.246Z,36
2022-11-04T09:56:19.271Z,35.3
2022-11-04T09:58:36.541Z,35.1
2022-11-04T10:00:54.257Z,35.1
2022-11-04T10:03:11.982Z,35.8
2022-11-04T10:07:46.951Z,35.8
2022-11-04T10:10:04.584Z,35.8
2022-11-04T10:12:22.287Z,35.8
2022-11-04T10:14:39.986Z,35.5
2022-11-04T10:16:57.456Z,35.4
2022-11-04T10:19:15.067Z,35.8
2022-11-04T10:21:32.656Z,35.8
2022-11-04T10:23:50.363Z,35.3
2022-11-04T10:26:07.929Z,35.9
2022-11-04T10:28:25.646Z,35.8
2022-11-04T10:30:43.141Z,35.8
2022-11-04T10:33:00.858Z,35.6
2022-11-04T10:35:18.431Z,35.8
2022-11-04T10:37:36.113Z,35.8
2022-11-04T10:39:53.689Z,35.8
2022-11-04T10:42:11.550Z,35.9
2022-11-04T10:44:29.237Z,35.3
2022-11-04T10:46:46.496Z,35.9
2022-11-04T10:49:04.167Z,35.8
2022-11-04T10:51:32.935Z,35.7
2022-11-04T10:53:50.633Z,35.6
2022-11-04T10:56:08.316Z,35.8
2022-11-04T10:58:25.834Z,35.4
2022-11-04T11:00:43.665Z,35.7
2022-11-04T11:03:01.192Z,35.4
2022-11-04T11:05:18.683Z,35.9
2022-11-04T11:07:36.589Z,35.4
2022-11-04T11:09:54.590Z,35.1
2022-11-04T11:12:36.549Z,36
2022-11-04T11:14:49.120Z,35.2
2022-11-04T11:19:24.527Z,36.1
2022-11-04T11:21:42.738Z,35.6
2022-11-04T11:23:59.664Z,36.1
2022-11-04T11:26:17.956Z,35.7
2022-11-04T11:28:34.928Z,36.3
2022-11-04T11:30:52.586Z,34.9
2022-11-04T11:35:27.849Z,35.4
2022-11-04T11:37:45.571Z,35.5
2022-11-04T11:40:03.132Z,35.5
2022-11-04T11:42:37.182Z,35.9
2022-11-04T11:44:54.780Z,35.6
2022-11-04T11:47:12.467Z,35.6
2022-11-04T11:49:30.219Z,35.4
2022-11-04T11:51:47.718Z,35.2
2022-11-04T11:54:05.326Z,35.6
2022-11-04T11:56:23.089Z,35.4
2022-11-04T12:02:39.121Z,36.2
2022-11-04T12:11:35.857Z,35.7
2022-11-04T12:13:55.703Z,36
2022-11-04T12:16:13.293Z,35.2
2022-11-04T12:18:31.007Z,35.6
2022-11-04T12:20:48.527Z,35.6
2022-11-04T12:23:06.285Z,35.3
2022-11-04T12:25:23.811Z,35.3
2022-11-04T12:27:41.398Z,35.2
2022-11-04T12:29:59.169Z,35.4
2022-11-04T12:32:16.746Z,35.8
2022-11-04T12:34:34.413Z,35.3
2022-11-04T12:36:51.946Z,35.2
2022-11-04T12:39:09.754Z,35.3
2022-11-04T12:44:29.836Z,36.1
2022-11-04T12:46:47.529Z,35.1
2022-11-04T12:49:07.312Z,34.8
2022-11-04T12:51:23.005Z,35.4
2022-11-04T12:53:40.835Z,35.3
2022-11-04T12:55:58.587Z,35.5
2022-11-04T12:58:16.563Z,35.2
2022-11-04T13:00:34.299Z,35.3
2022-11-04T13:02:51.983Z,35.1
2022-11-04T13:05:09.600Z,35.8
2022-11-04T13:07:27.296Z,35.4
2022-11-04T13:09:45.147Z,35.1
2022-11-04T13:14:20.252Z,33.1
2022-11-04T13:16:37.799Z,34.9
2022-11-04T13:18:55.716Z,35.2
2022-11-04T13:21:13.174Z,35.5
2022-11-04T13:23:31.032Z,35.4
2022-11-04T13:25:49.016Z,35.2
2022-11-04T13:28:06.028Z,34.3
2022-11-04T13:30:23.852Z,32.4
2022-11-04T13:32:41.075Z,31.6
2022-11-04T13:34:58.795Z,31.1
2022-11-04T13:37:16.139Z,30.9
2022-11-04T13:39:33.872Z,30.6
2022-11-04T13:41:51.244Z,30.9
2022-11-04T13:44:08.717Z,30.8
2022-11-04T13:46:26.090Z,30.6
2022-11-04T13:48:43.956Z,30.8
2022-11-04T13:51:01.176Z,30.5
2022-11-04T13:53:18.564Z,30.6
2022-11-04T13:55:36.139Z,30.6
2022-11-04T13:58:06.488Z,30.7
2022-11-04T14:00:23.659Z,30.9
2022-11-04T14:02:41.226Z,30.8
2022-11-04T14:04:58.442Z,30.9
2022-11-04T14:07:15.808Z,30.8
2022-11-04T14:09:33.165Z,30.7
2022-11-04T14:11:50.814Z,30.6
2022-11-04T14:14:08.005Z,30.8
2022-11-04T14:16:25.586Z,30.7
2022-11-04T14:18:42.724Z,30.8
2022-11-04T14:21:00.181Z,30.5
2022-11-04T14:23:17.669Z,30.8
2022-11-04T14:25:35.379Z,32
2022-11-04T14:27:52.985Z,32.4
2022-11-04T14:30:10.638Z,31.8
2022-11-04T14:32:28.288Z,32.3
2022-11-04T14:34:45.981Z,31.9
2022-11-04T14:37:03.506Z,32.1
2022-11-04T14:39:21.074Z,34.4
2022-11-04T14:41:38.724Z,34.9
2022-11-04T14:43:56.337Z,31.3
2022-11-04T14:46:14.215Z,32
2022-11-04T14:48:31.659Z,32.2
2022-11-04T14:50:49.486Z,31.9
2022-11-04T14:53:07.515Z,32
2022-11-04T14:55:24.794Z,32.1
2022-11-04T14:57:42.740Z,34.4
2022-11-04T15:00:00.120Z,32.2
2022-11-04T15:02:17.856Z,32.5
2022-11-04T15:05:12.999Z,31.9
2022-11-04T15:07:30.520Z,32.3
2022-11-04T15:09:48.232Z,31.8
2022-11-04T15:12:05.718Z,34.2
2022-11-04T15:14:23.353Z,31.5
2022-11-04T15:16:41.060Z,31.7
2022-11-04T15:18:58.647Z,31.8
2022-11-04T15:21:16.209Z,34.7
2022-11-04T15:23:33.901Z,31.1
2022-11-04T15:25:51.485Z,31.8
2022-11-04T15:28:09.129Z,31.9
2022-11-04T15:30:26.818Z,31.7
2022-11-04T15:32:44.342Z,31.4
2022-11-04T15:35:01.840Z,34.1
2022-11-04T15:37:19.514Z,34.6
2022-11-04T15:39:37.072Z,31.7
2022-11-04T15:41:54.821Z,31.7
2022-11-04T15:44:12.387Z,31.9
2022-11-04T15:46:29.924Z,32
2022-11-04T15:48:47.802Z,34.4
2022-11-04T15:51:05.208Z,31.2
2022-11-04T15:53:22.787Z,31.7
2022-11-04T15:55:40.328Z,31.8
2022-11-04T15:57:58.008Z,34.6
2022-11-04T16:00:15.623Z,31.4
2022-11-04T16:02:33.322Z,31
2022-11-04T16:04:51.004Z,31.7
2022-11-04T16:07:08.803Z,31.7
2022-11-04T16:09:26.352Z,31.7
2022-11-04T16:11:44.113Z,34.6
2022-11-04T16:14:01.925Z,31.7
2022-11-04T16:16:19.432Z,31.5
2022-11-04T16:18:37.184Z,34.4
2022-11-04T16:20:54.919Z,31.3
2022-11-04T16:23:12.825Z,32
2022-11-04T16:25:30.389Z,32
2022-11-04T16:27:48.292Z,31.8
2022-11-04T16:30:05.947Z,31.9
2022-11-04T16:32:23.920Z,31.6
2022-11-04T16:34:41.698Z,31.9
2022-11-04T16:36:59.422Z,32.5
2022-11-04T16:39:17.008Z,31.6
2022-11-04T16:41:34.746Z,32.1
2022-11-04T16:43:52.567Z,31.7
2022-11-04T16:46:10.040Z,34.8
2022-11-04T16:48:28.010Z,31
2022-11-04T16:50:45.728Z,31.6
2022-11-04T16:53:03.729Z,31.4
2022-11-04T16:55:21.321Z,32.3
2022-11-04T16:57:39.344Z,31.8
2022-11-04T16:59:56.959Z,31.9
2022-11-04T17:02:14.734Z,31.9
2022-11-04T17:04:32.430Z,34.6
2022-11-04T17:06:50.064Z,31.3
2022-11-04T17:09:11.236Z,32.3
2022-11-04T17:13:46.537Z,31.9
2022-11-04T17:16:04.372Z,31.4
2022-11-04T17:18:22.041Z,31.8
2022-11-04T17:20:39.773Z,34.6
2022-11-04T17:22:57.124Z,31.1
2022-11-04T17:25:14.896Z,31.7
2022-11-04T17:27:32.550Z,31.9
2022-11-04T17:29:50.112Z,31.6
2022-11-04T17:32:07.756Z,34.4
2022-11-04T17:34:25.556Z,31
2022-11-04T17:39:00.756Z,31.8
2022-11-04T17:41:18.356Z,34.2
2022-11-04T17:43:36.078Z,31.5
2022-11-04T17:45:53.891Z,31.6
2022-11-04T17:48:11.490Z,31.6
2022-11-04T17:50:29.033Z,34.9
2022-11-04T17:52:48.682Z,31.5
2022-11-04T17:57:22.056Z,31.4
2022-11-04T17:59:40.025Z,31.5
2022-11-04T18:01:57.692Z,31.8
2022-11-04T18:04:15.218Z,31.2
2022-11-04T18:06:33.123Z,31.6
2022-11-04T18:11:08.139Z,31.2
2022-11-04T18:13:25.958Z,31.3
2022-11-04T18:15:43.495Z,31.6
2022-11-04T18:18:01.254Z,31.5
2022-11-04T18:20:19.053Z,31.4
2022-11-04T18:22:37.091Z,31.8
2022-11-04T18:24:54.720Z,31.4
2022-11-04T18:27:12.275Z,31.1
2022-11-04T18:29:30.068Z,34.4
2022-11-04T18:31:49.165Z,31.6
2022-11-04T18:34:05.306Z,30.9
2022-11-04T18:36:23.087Z,34.4
2022-11-04T18:38:40.792Z,34.7
2022-11-04T18:40:58.656Z,31.5
2022-11-04T18:43:16.699Z,31.6
2022-11-04T18:45:34.332Z,31.4
2022-11-04T18:47:52.071Z,31.9
2022-11-04T18:50:09.894Z,34.6
2022-11-04T18:52:27.909Z,31
2022-11-04T18:54:45.604Z,31.2
2022-11-04T18:57:03.188Z,31.8
2022-11-04T18:59:20.817Z,34.4
2022-11-04T19:01:38.896Z,30.9
2022-11-04T19:03:56.507Z,31.4
2022-11-04T19:06:14.562Z,31.3
2022-11-04T19:08:32.203Z,31.5
2022-11-04T19:11:17.869Z,31.4
2022-11-04T19:13:35.461Z,31.1
2022-11-04T19:15:53.083Z,34.6
2022-11-04T19:18:11.143Z,30.9
2022-11-04T19:20:28.534Z,31.3
2022-11-04T19:22:46.304Z,31.1
2022-11-04T19:25:03.860Z,31.5
2022-11-04T19:27:21.942Z,34.8
2022-11-04T19:29:55.567Z,30.5
2022-11-04T19:32:14.408Z,31.4
2022-11-04T19:34:31.014Z,31.6
2022-11-04T19:36:48.735Z,31.6
2022-11-04T19:39:06.335Z,31.1
2022-11-04T19:41:23.993Z,34.6
2022-11-04T19:43:42.025Z,30.6
2022-11-04T19:46:03.980Z,31.9
2022-11-04T19:48:17.113Z,31.7
2022-11-04T19:50:34.888Z,31.8
2022-11-04T19:52:52.558Z,31.1
2022-11-04T19:55:10.215Z,31.3
2022-11-04T19:57:27.997Z,31.3
2022-11-04T19:59:45.755Z,31.1
2022-11-04T20:02:03.548Z,31
2022-11-04T20:04:21.117Z,31.3
2022-11-04T20:06:38.814Z,31.3
2022-11-04T20:08:56.533Z,30.9
2022-11-04T20:11:14.254Z,31.2
2022-11-04T20:13:31.875Z,31.1
2022-11-04T20:15:49.617Z,31.1
2022-11-04T20:18:07.363Z,31.4
2022-11-04T20:20:24.966Z,34.8
2022-11-04T20:22:42.599Z,31.1
2022-11-04T20:25:00.240Z,31.3
2022-11-04T20:27:17.901Z,31
2022-11-04T20:29:35.882Z,31.8
2022-11-04T20:31:54.060Z,31.2
2022-11-04T20:34:11.024Z,31.4
2022-11-04T20:36:28.789Z,31.5
2022-11-04T20:38:46.403Z,31.4
2022-11-04T20:41:04.124Z,31.4
2022-11-04T20:43:21.800Z,31.2
2022-11-04T20:45:39.580Z,31.4
2022-11-04T20:47:57.303Z,31.3
2022-11-04T20:50:15.105Z,31.4
2022-11-04T20:52:32.755Z,31.5
2022-11-04T20:54:50.420Z,31.4
2022-11-04T20:57:08.099Z,30.9
2022-11-04T20:59:25.702Z,34.6
2022-11-04T21:01:43.601Z,30.8
2022-11-04T21:04:01.316Z,31.1
2022-11-04T21:06:18.672Z,35.3
2022-11-04T21:08:36.380Z,30.1
2022-11-04T21:10:54.187Z,31.2
2022-11-04T21:13:11.812Z,31.1
2022-11-04T21:15:29.685Z,31.8
2022-11-04T21:17:47.253Z,34.3
2022-11-04T21:20:04.825Z,30.3
2022-11-04T21:22:22.511Z,31.3
2022-11-04T21:24:40.348Z,31.3
2022-11-04T21:26:58.063Z,31.6
2022-11-04T21:29:15.764Z,31.5
2022-11-04T21:31:33.325Z,31.5
2022-11-04T21:33:50.963Z,31.1
2022-11-04T21:38:26.319Z,30.4
2022-11-04T21:40:43.981Z,31.2
2022-11-04T21:43:01.780Z,30.9
2022-11-04T21:45:19.473Z,31
2022-11-04T21:47:37.165Z,31.6
2022-11-04T21:49:54.906Z,31.4
2022-11-04T21:52:12.385Z,34.8
2022-11-04T21:54:30.085Z,35.1
2022-11-04T21:56:47.745Z,30.8
2022-11-04T21:59:05.451Z,30.8
2022-11-04T22:01:24.216Z,30.9
2022-11-04T22:03:40.838Z,31.4
2022-11-04T22:05:58.664Z,31.6
2022-11-04T22:08:16.321Z,31
2022-11-04T22:10:34.142Z,30.9
2022-11-04T22:12:51.833Z,31.2
2022-11-04T22:15:09.548Z,31.5
2022-11-04T22:17:27.177Z,31.4
2022-11-04T22:19:44.940Z,31.1
2022-11-04T22:22:02.636Z,31.4
2022-11-04T22:24:20.290Z,31.1
2022-11-04T22:26:38.165Z,31.6
2022-11-04T22:28:55.672Z,31.2
2022-11-04T22:31:13.359Z,31.9
2022-11-04T22:35:48.863Z,30.8
2022-11-04T22:38:06.679Z,31.4
2022-11-04T22:42:42.117Z,30.9
2022-11-04T22:44:59.761Z,31.4
2022-11-04T22:47:17.680Z,31.3
2022-11-04T22:49:35.283Z,31.4
2022-11-04T22:51:52.869Z,30.7
2022-11-04T22:54:10.549Z,31.5
2022-11-04T22:56:28.713Z,31.8
2022-11-04T22:58:46.104Z,31.2
2022-11-04T23:01:03.798Z,31.2
2022-11-04T23:03:21.530Z,31.3
2022-11-04T23:05:39.234Z,31.1
2022-11-04T23:07:56.897Z,31.4
2022-11-04T23:10:14.477Z,30.8
2022-11-04T23:12:32.310Z,34.9
2022-11-04T23:14:50.383Z,34.6
2022-11-04T23:17:07.465Z,34.9
2022-11-04T23:19:29.834Z,30.8
2022-11-04T23:21:42.846Z,31
2022-11-04T23:24:00.536Z,31.4
2022-11-04T23:26:19.741Z,30
2022-11-04T23:28:35.841Z,30.6
2022-11-04T23:30:53.660Z,30.6
2022-11-04T23:33:11.892Z,30.5
2022-11-04T23:35:29.078Z,31.3
2022-11-04T23:37:46.713Z,30.7
2022-11-04T23:40:04.514Z,31.2
2022-11-04T23:42:22.273Z,30.5
2022-11-04T23:44:39.895Z,31.1
2022-11-04T23:46:57.598Z,31.2
2022-11-04T23:49:15.789Z,30.4
2022-11-04T23:51:32.975Z,34.7
2022-11-04T23:53:50.525Z,34.8
2022-11-04T23:56:08.144Z,30.6
2022-11-04T23:58:25.827Z,31
